»·PEaware :: N982ZC KSBA-KVNY

N982ZC :: KSBA-KVNY

FLIGHT INFORMATION

Flight Status: Arrived
Operator: Privately registered:
United States
More flights under this callsign
Pilot: Sanjiv S. (4490)
Aircraft: PIPER PA-28R-201 ARROW
(P28R)
More flights by this aircraft type
Origin: KSBA Santa Barbara Mun
United States
Destination: KVNY Van Nuys
United States
More flights between these airports :: More routes between these airports
Route: +
File this flight plan on PilotEdge
Remarks:
Altitude:
(Current/Filed)
0ft
Speed:
(Current/Filed)
0kts
Departed: 28-May-18 09:05 AM
Arrived: 28-May-18 09:51 AM
Distance/Time
Traveled:
68nm/0:46
Distance/Time
To Go:
Arrived

Flight Plot

Page will automatically refresh every two minutes.


Map Options




Map Legend


Flown Route
Filed Route
Departure Airport
Arrival Airport
Navaid (VOR, NDB)
Fix

Horizontal Profiles

Position Reports

Time Latitude Longitude Heading Altitude Ground
Speed
28-May-18 08:51 34.423082 -119.836091 161 16ft 0kts
28-May-18 08:52 34.423082 -119.836091 161 16ft 0kts
28-May-18 08:53 34.423082 -119.836091 161 16ft 0kts
28-May-18 08:54 34.423082 -119.836091 161 16ft 0kts
28-May-18 08:55 34.423082 -119.836091 161 16ft 0kts
28-May-18 08:56 34.422821 -119.836511 256 16ft 0kts
28-May-18 08:57 34.422744 -119.836802 246 16ft 7kts
28-May-18 08:58 34.426273 -119.838220 345 16ft 9kts
28-May-18 08:59 34.426853 -119.834410 62 16ft 5kts
28-May-18 09:00 34.427084 -119.834311 359 16ft 0kts
28-May-18 09:01 34.427083 -119.834311 0 16ft 0kts
28-May-18 09:02 34.427083 -119.834311 0 16ft 0kts
28-May-18 09:03 34.427186 -119.834614 358 16ft 0kts
28-May-18 09:04 34.427186 -119.834614 358 16ft 0kts
28-May-18 09:05 34.427862 -119.837006 269 16ft 58kts
28-May-18 09:06 34.427215 -119.865890 265 923ft 100kts
28-May-18 09:07 34.423705 -119.904278 264 1456ft 127kts
28-May-18 09:08 34.418144 -119.948325 262 1490ft 135kts
28-May-18 09:09 34.411966 -119.992087 262 1667ft 130kts
28-May-18 09:10 34.400170 -120.031427 195 1672ft 138kts
28-May-18 09:11 34.376488 -120.011215 93 2348ft 117kts
28-May-18 09:12 34.375248 -119.970659 91 2987ft 120kts
28-May-18 09:13 34.374153 -119.929917 91 3580ft 122kts
28-May-18 09:14 34.370655 -119.888973 96 4124ft 123kts
28-May-18 09:15 34.366345 -119.847351 96 4521ft 132kts
28-May-18 09:16 34.361900 -119.803654 96 4513ft 128kts
28-May-18 09:17 34.357756 -119.761956 96 4514ft 123kts
28-May-18 09:18 34.353730 -119.720735 96 4514ft 123kts
28-May-18 09:19 34.349851 -119.680331 96 4514ft 123kts
28-May-18 09:20 34.345946 -119.638993 95 4514ft 126kts
28-May-18 09:21 34.342038 -119.596930 95 4514ft 126kts
28-May-18 09:22 34.337788 -119.554926 97 4514ft 126kts
28-May-18 09:23 34.332991 -119.513149 96 4514ft 124kts
28-May-18 09:24 34.328694 -119.472133 96 4500ft 123kts
28-May-18 09:25 34.324528 -119.431188 96 4496ft 122kts
28-May-18 09:26 34.320506 -119.390591 96 4496ft 122kts
28-May-18 09:27 34.316522 -119.349990 96 4496ft 122kts
28-May-18 09:28 34.312853 -119.314795 97 4496ft 122kts
28-May-18 09:29 34.308719 -119.274150 96 4496ft 122kts
28-May-18 09:30 34.304658 -119.233573 96 4496ft 122kts
28-May-18 09:31 34.300650 -119.193274 96 4496ft 122kts
28-May-18 09:32 34.295844 -119.152786 100 4496ft 122kts
28-May-18 09:33 34.290054 -119.112394 98 4496ft 122kts
28-May-18 09:34 34.285180 -119.071873 97 4496ft 122kts
28-May-18 09:35 34.280729 -119.031260 97 4496ft 122kts
28-May-18 09:36 34.276561 -118.991527 96 4496ft 122kts
28-May-18 09:37 34.272390 -118.950985 96 4496ft 122kts
28-May-18 09:38 34.268254 -118.910637 96 4496ft 122kts
28-May-18 09:39 34.264058 -118.869492 96 4531ft 125kts
28-May-18 09:40 34.259814 -118.828039 96 4532ft 127kts
28-May-18 09:41 34.255434 -118.785842 96 4532ft 127kts
28-May-18 09:42 34.251133 -118.743631 96 4532ft 127kts
28-May-18 09:43 34.246996 -118.701744 96 4139ft 128kts
28-May-18 09:44 34.242917 -118.659504 96 3579ft 126kts
28-May-18 09:45 34.234560 -118.618933 118 3048ft 124kts
28-May-18 09:46 34.224094 -118.579841 100 2362ft 123kts
28-May-18 09:47 34.218688 -118.540578 93 1841ft 114kts
28-May-18 09:48 34.236080 -118.526206 354 1678ft 91kts
28-May-18 09:49 34.243481 -118.508508 92 1265ft 84kts
28-May-18 09:50 34.227233 -118.491969 174 963ft 85kts
28-May-18 09:51 34.208378 -118.490244 175 805ft 30kts
28-May-18 09:52 34.206759 -118.491245 349 805ft 4kts
28-May-18 09:53 34.207383 -118.491965 184 805ft 0kts

Navigation Log

Ident Type
Flight plan parsing failed, navigation log unavailable